createdAt,value
2018-08-16T00:01:13.856Z,19.50
2018-08-16T00:06:16.969Z,19.40
2018-08-16T00:11:20.001Z,19.40
2018-08-16T00:16:23.138Z,19.30
2018-08-16T00:21:26.265Z,19.30
2018-08-16T00:26:29.306Z,19.30
2018-08-16T00:31:32.345Z,19.30
2018-08-16T00:36:35.369Z,19.20
2018-08-16T00:41:38.417Z,19.20
2018-08-16T00:46:41.476Z,19.20
2018-08-16T00:51:44.509Z,19.10
2018-08-16T00:56:47.549Z,19.10
2018-08-16T01:01:50.596Z,19.00
2018-08-16T01:06:53.618Z,19.00
2018-08-16T01:11:56.656Z,19.00
2018-08-16T01:16:59.836Z,18.90
2018-08-16T01:22:02.868Z,18.90
2018-08-16T01:27:06.025Z,18.80
2018-08-16T01:32:09.216Z,18.80
2018-08-16T01:37:12.245Z,18.60
2018-08-16T01:42:15.295Z,18.60
2018-08-16T01:47:18.312Z,18.60
2018-08-16T01:52:21.328Z,18.60
2018-08-16T01:57:24.591Z,18.60
2018-08-16T02:02:27.604Z,18.60
2018-08-16T02:07:31.279Z,18.50
2018-08-16T02:12:34.366Z,18.50
2018-08-16T02:17:37.405Z,18.50
2018-08-16T02:22:41.075Z,18.40
2018-08-16T02:27:44.170Z,18.40
2018-08-16T02:32:47.176Z,18.40
2018-08-16T02:37:50.389Z,18.30
2018-08-16T02:42:53.721Z,18.30
2018-08-16T02:47:56.808Z,18.20
2018-08-16T02:52:59.828Z,18.20
2018-08-16T02:58:02.886Z,18.20
2018-08-16T03:03:05.904Z,18.10
2018-08-16T03:08:08.929Z,18.10
2018-08-16T03:13:11.948Z,18.10
2018-08-16T03:18:15.000Z,18.10
2018-08-16T03:23:18.116Z,18.10
2018-08-16T03:28:21.135Z,18.00
2018-08-16T03:33:24.153Z,18.00
2018-08-16T03:38:27.169Z,17.90
2018-08-16T03:43:30.185Z,18.00
2018-08-16T03:48:33.216Z,17.90
2018-08-16T03:53:36.269Z,17.90
2018-08-16T03:58:39.281Z,17.80
2018-08-16T04:03:42.287Z,17.80
2018-08-16T04:08:45.365Z,17.80
2018-08-16T04:13:48.572Z,17.80
2018-08-16T04:18:51.621Z,17.80
2018-08-16T04:23:54.635Z,17.90
2018-08-16T04:28:57.713Z,17.90
2018-08-16T04:34:00.692Z,18.00
2018-08-16T04:39:05.149Z,18.00
2018-08-16T04:44:08.155Z,18.00
2018-08-16T04:49:11.163Z,18.00
2018-08-16T04:54:14.169Z,18.10
2018-08-16T04:59:17.186Z,18.20
2018-08-16T05:04:20.231Z,18.30
2018-08-16T05:09:23.273Z,18.40
2018-08-16T05:14:26.266Z,18.50
2018-08-16T05:19:29.278Z,18.70
2018-08-16T05:24:32.329Z,18.80
2018-08-16T05:29:35.341Z,18.90
2018-08-16T05:34:38.345Z,19.10
2018-08-16T05:39:41.365Z,19.20
2018-08-16T05:44:44.381Z,19.40
2018-08-16T05:49:47.401Z,19.50
2018-08-16T05:54:50.911Z,19.70
2018-08-16T05:59:53.945Z,19.80
2018-08-16T06:04:58.707Z,19.90
2018-08-16T06:10:01.784Z,20.00
2018-08-16T06:15:05.451Z,20.30
2018-08-16T06:20:10.501Z,20.50
2018-08-16T06:25:14.131Z,20.40
2018-08-16T06:30:17.820Z,20.60
2018-08-16T06:35:21.017Z,20.70
2018-08-16T06:40:24.147Z,20.90
2018-08-16T06:45:27.711Z,21.00
2018-08-16T06:50:31.167Z,21.20
2018-08-16T06:55:34.256Z,21.30
2018-08-16T07:00:37.271Z,21.40
2018-08-16T07:05:40.803Z,21.60
2018-08-16T07:10:43.831Z,22.00
2018-08-16T07:15:46.913Z,22.40
2018-08-16T07:20:49.945Z,22.60
2018-08-16T07:25:52.979Z,22.50
2018-08-16T07:30:55.989Z,22.70
2018-08-16T07:35:59.000Z,22.60
2018-08-16T07:41:02.249Z,23.00
2018-08-16T07:46:05.402Z,23.30
2018-08-16T07:51:09.537Z,23.30
2018-08-16T07:56:12.640Z,23.30
2018-08-16T08:01:15.652Z,23.70
2018-08-16T08:06:19.252Z,24.00
2018-08-16T08:11:22.553Z,24.00
2018-08-16T08:16:25.585Z,24.10
2018-08-16T08:21:29.766Z,24.10
2018-08-16T08:26:32.820Z,24.30
2018-08-16T08:31:35.871Z,24.50
2018-08-16T08:36:50.712Z,24.50
2018-08-16T08:41:53.729Z,24.90
2018-08-16T08:46:57.407Z,25.50
2018-08-16T08:52:01.370Z,25.50
2018-08-16T08:57:16.490Z,25.20
2018-08-16T09:02:20.569Z,25.70
2018-08-16T09:07:24.815Z,25.60
2018-08-16T09:13:38.414Z,26.00
2018-08-16T09:18:41.480Z,27.10
2018-08-16T09:23:44.685Z,27.10
2018-08-16T09:28:47.726Z,27.20
2018-08-16T09:34:02.456Z,27.80
2018-08-16T09:39:07.516Z,28.10
2018-08-16T09:44:10.593Z,28.60
2018-08-16T09:49:13.912Z,28.70
2018-08-16T09:54:16.936Z,29.00
2018-08-16T09:59:20.129Z,28.30
2018-08-16T10:04:23.139Z,28.20
2018-08-16T10:09:27.356Z,28.50
2018-08-16T10:14:30.475Z,29.50
2018-08-16T10:19:33.502Z,29.90
2018-08-16T10:24:36.559Z,28.90
2018-08-16T10:29:39.575Z,29.00
2018-08-16T10:34:42.587Z,28.80
2018-08-16T10:39:45.586Z,29.50
2018-08-16T10:44:48.675Z,29.40
2018-08-16T10:49:51.693Z,29.30
2018-08-16T10:54:55.315Z,29.50
2018-08-16T10:59:58.324Z,29.80
2018-08-16T11:05:01.355Z,29.70
2018-08-16T11:10:04.777Z,30.20
2018-08-16T11:15:09.447Z,30.50
2018-08-16T11:20:16.143Z,30.60
2018-08-16T11:25:20.172Z,30.70
2018-08-16T11:30:23.188Z,30.40
2018-08-16T11:35:26.275Z,30.80
2018-08-16T11:40:29.353Z,30.90
2018-08-16T11:45:32.388Z,31.00
2018-08-16T11:50:35.424Z,30.50
2018-08-16T11:55:38.496Z,31.20
2018-08-16T12:00:41.531Z,31.60
2018-08-16T12:05:44.656Z,31.50
2018-08-16T12:10:47.684Z,32.40
2018-08-16T12:15:50.801Z,32.30
2018-08-16T12:20:53.856Z,31.10
2018-08-16T12:25:57.383Z,30.70
2018-08-16T12:31:00.492Z,31.50
2018-08-16T12:36:03.539Z,32.10
2018-08-16T12:41:06.800Z,32.70
2018-08-16T12:46:09.860Z,32.90
2018-08-16T12:51:12.960Z,32.10
2018-08-16T12:56:16.042Z,32.30
2018-08-16T13:01:19.168Z,33.00
2018-08-16T13:06:22.247Z,32.90
2018-08-16T13:11:25.298Z,32.60
2018-08-16T13:16:28.329Z,32.80
2018-08-16T13:21:31.383Z,33.00
2018-08-16T13:26:34.388Z,33.10
2018-08-16T13:31:37.495Z,32.90
2018-08-16T13:36:40.600Z,32.90
2018-08-16T13:41:43.620Z,33.00
2018-08-16T13:46:46.693Z,33.60
2018-08-16T13:51:49.717Z,33.60
2018-08-16T13:56:52.725Z,33.80
2018-08-16T14:01:55.758Z,34.10
2018-08-16T14:06:58.864Z,34.00
2018-08-16T14:12:01.917Z,33.70
2018-08-16T14:17:05.537Z,33.10
2018-08-16T14:22:08.551Z,33.10
2018-08-16T14:27:11.569Z,33.50
2018-08-16T14:32:14.640Z,33.90
2018-08-16T14:37:17.642Z,34.10
2018-08-16T14:42:20.685Z,33.90
2018-08-16T14:47:24.176Z,34.00
2018-08-16T14:52:27.188Z,34.20
2018-08-16T14:57:30.201Z,34.20
2018-08-16T15:02:33.258Z,34.20
2018-08-16T15:07:36.288Z,34.20
2018-08-16T15:12:39.341Z,33.60
2018-08-16T15:17:42.384Z,34.00
2018-08-16T15:22:45.404Z,34.00
2018-08-16T15:27:48.491Z,34.00
2018-08-16T15:32:51.498Z,33.90
2018-08-16T15:37:54.534Z,34.10
2018-08-16T15:42:57.552Z,34.40
2018-08-16T15:48:00.679Z,34.40
2018-08-16T15:53:03.704Z,34.30
2018-08-16T15:58:07.031Z,34.40
2018-08-16T16:03:10.094Z,33.30
2018-08-16T16:08:13.116Z,32.30
2018-08-16T16:13:16.145Z,32.80
2018-08-16T16:18:19.173Z,33.50
2018-08-16T16:23:22.188Z,33.80
2018-08-16T16:28:25.290Z,33.80
2018-08-16T16:33:28.404Z,33.90
2018-08-16T16:38:31.455Z,33.90
2018-08-16T16:43:34.499Z,33.80
2018-08-16T16:48:37.537Z,33.80
2018-08-16T16:53:40.724Z,33.80
2018-08-16T16:58:44.227Z,33.80
2018-08-16T17:03:47.388Z,33.60
2018-08-16T17:08:50.416Z,33.50
2018-08-16T17:13:53.715Z,33.30
2018-08-16T17:18:56.762Z,33.30
2018-08-16T17:24:00.132Z,33.20
2018-08-16T17:29:03.146Z,32.80
2018-08-16T17:34:06.153Z,32.10
2018-08-16T17:39:09.176Z,31.50
2018-08-16T17:44:12.340Z,31.00
2018-08-16T17:49:15.410Z,30.60
2018-08-16T17:54:18.623Z,30.30
2018-08-16T17:59:21.725Z,30.20
2018-08-16T18:04:24.755Z,30.00
2018-08-16T18:09:27.750Z,29.70
2018-08-16T18:14:30.827Z,29.50
2018-08-16T18:19:33.844Z,29.20
2018-08-16T18:24:36.956Z,29.10
2018-08-16T18:29:39.957Z,29.00
2018-08-16T18:34:42.982Z,28.70
2018-08-16T18:39:45.997Z,28.60
2018-08-16T18:44:49.530Z,28.30
2018-08-16T18:49:52.723Z,28.20
2018-08-16T18:54:55.916Z,27.90
2018-08-16T18:59:58.941Z,27.70
2018-08-16T19:05:02.011Z,27.50
2018-08-16T19:10:06.025Z,27.40
2018-08-16T19:15:09.123Z,27.30
2018-08-16T19:20:12.158Z,27.10
2018-08-16T19:25:15.176Z,26.90
2018-08-16T19:30:19.542Z,26.80
2018-08-16T19:35:22.558Z,26.70
2018-08-16T19:40:25.562Z,26.50
2018-08-16T19:45:29.549Z,26.40
2018-08-16T19:50:32.593Z,26.40
2018-08-16T19:55:37.347Z,26.30
2018-08-16T20:00:40.429Z,26.20
2018-08-16T20:05:43.563Z,26.10
2018-08-16T20:10:46.609Z,26.10
2018-08-16T20:15:50.048Z,26.00
2018-08-16T20:20:53.077Z,25.90
2018-08-16T20:25:56.166Z,25.90
2018-08-16T20:30:59.196Z,25.70
2018-08-16T20:36:02.316Z,25.60
2018-08-16T20:41:05.328Z,25.60
2018-08-16T20:46:08.613Z,25.50
2018-08-16T20:51:11.637Z,25.40
2018-08-16T20:56:14.932Z,25.30
2018-08-16T21:01:17.950Z,25.20
2018-08-16T21:06:21.028Z,25.20
2018-08-16T21:11:24.232Z,25.10
2018-08-16T21:16:27.244Z,25.10
2018-08-16T21:21:32.166Z,25.10
2018-08-16T21:26:35.332Z,25.00
2018-08-16T21:31:38.376Z,24.90
2018-08-16T21:36:41.411Z,24.90
2018-08-16T21:41:44.445Z,24.90
2018-08-16T21:46:47.471Z,24.80
2018-08-16T21:51:50.528Z,24.80
2018-08-16T21:56:53.556Z,24.80
2018-08-16T22:01:56.567Z,24.70
2018-08-16T22:07:05.452Z,24.70
2018-08-16T22:12:08.470Z,24.70
2018-08-16T22:17:11.502Z,24.60
2018-08-16T22:22:14.524Z,24.60
2018-08-16T22:27:17.547Z,24.50
2018-08-16T22:32:20.568Z,24.50
2018-08-16T22:37:23.579Z,24.40
2018-08-16T22:42:26.751Z,24.30
2018-08-16T22:47:30.681Z,24.20
2018-08-16T22:52:33.727Z,24.20
2018-08-16T22:57:36.807Z,24.20
2018-08-16T23:02:40.121Z,24.10
2018-08-16T23:07:43.151Z,24.00
2018-08-16T23:12:46.180Z,23.80
2018-08-16T23:17:49.263Z,23.80
2018-08-16T23:22:52.287Z,23.70
2018-08-16T23:27:55.290Z,23.70
2018-08-16T23:32:58.300Z,23.70
2018-08-16T23:38:01.310Z,23.60
2018-08-16T23:43:04.346Z,23.50
2018-08-16T23:48:18.961Z,23.40
2018-08-16T23:53:21.985Z,23.30
2018-08-16T23:58:25.010Z,23.30
